Time;durP1;ratioP1;P1;durP2;ratioP2;P2;SDS_P1;SDS_P2;PMS_P1;PMS_P2;Temp;Humidity;BMP_temperature;BMP_pressure;BME280_temperature;BME280_humidity;BME280_pressure;Samples;Min_cycle;Max_cycle;Signal;HPM_P1;HPM_P2
2023/10/22 00:04:13;;;;;;;3.67;0.60;;;;;;;11.63;100.00;99516.53;4880564;29;20048;-93
2023/10/22 00:14:26;;;;;;;2.75;0.50;;;;;;;11.67;100.00;99528.53;4881345;29;20124;-93
2023/10/22 00:24:13;;;;;;;3.10;0.50;;;;;;;11.92;100.00;99554.34;4879932;29;20033;-94
2023/10/22 00:40:38;;;;;;;3.17;0.50;;;;;;;12.13;100.00;99568.16;4881204;29;20041;-94
2023/10/22 00:50:26;;;;;;;3.58;0.57;;;;;;;12.24;100.00;99581.59;4860665;29;20052;-94
2023/10/22 00:52:52;;;;;;;1.63;0.40;;;;;;;12.21;100.00;99584.00;4860513;29;20033;-93
2023/10/22 00:55:18;;;;;;;1.73;0.50;;;;;;;12.32;100.00;99593.09;4880724;29;20496;-94
2023/10/22 01:01:08;;;;;;;1.17;0.40;;;;;;;12.34;100.00;99574.63;4899053;29;20067;-94
2023/10/22 01:03:38;;;;;;;2.92;0.50;;;;;;;12.34;100.00;99597.22;4882979;29;20044;-94
2023/10/22 01:06:04;;;;;;;5.43;1.10;;;;;;;12.33;100.00;99597.44;4882532;29;20044;-94
2023/10/22 01:08:34;;;;;;;2.63;0.52;;;;;;;12.34;100.00;99602.66;4883043;29;20056;-94
2023/10/22 01:14:37;;;;;;;4.28;0.55;;;;;;;12.39;100.00;99605.41;4899101;29;20132;-94
2023/10/22 01:17:48;;;;;;;4.25;0.60;;;;;;;12.39;100.00;99602.69;4882782;29;20056;-94
2023/10/22 01:23:40;;;;;;;3.13;0.50;;;;;;;12.31;100.00;99611.28;4898637;29;20043;-93
2023/10/22 01:29:34;;;;;;;4.88;0.75;;;;;;;11.84;100.00;99626.28;4898612;29;20084;-93
2023/10/22 01:32:05;;;;;;;2.08;0.60;;;;;;;11.70;100.00;99633.97;4866875;29;20474;-94
2023/10/22 01:34:31;;;;;;;2.07;0.50;;;;;;;11.67;100.00;99641.81;4852785;29;20155;-94
2023/10/22 01:40:27;;;;;;;3.85;0.70;;;;;;;11.34;100.00;99654.44;4876345;29;20107;-94
2023/10/22 01:46:17;;;;;;;3.07;0.83;;;;;;;11.02;100.00;99665.88;4902194;29;20148;-95
2023/10/22 01:48:47;;;;;;;6.18;1.15;;;;;;;10.88;100.00;99674.34;4885251;29;20025;-95
2023/10/22 01:51:24;;;;;;;5.53;0.70;;;;;;;10.83;100.00;99687.81;4869702;29;20059;-96
2023/10/22 01:53:56;;;;;;;5.78;0.90;;;;;;;10.81;100.00;99686.44;4884972;29;20040;-96
2023/10/22 01:56:21;;;;;;;6.85;0.93;;;;;;;10.70;100.00;99688.97;4869732;29;20180;-94
2023/10/22 01:58:47;;;;;;;7.57;0.90;;;;;;;10.67;100.00;99686.75;4902801;29;20123;-93
2023/10/22 02:01:12;;;;;;;6.17;1.10;;;;;;;10.67;100.00;99691.34;4903348;29;20036;-93
2023/10/22 02:03:45;;;;;;;6.80;1.17;;;;;;;10.60;100.00;99699.66;4892794;29;20161;-93
2023/10/22 02:06:12;;;;;;;5.40;1.00;;;;;;;10.62;100.00;99707.53;4900365;29;20386;-95
2023/10/22 02:08:48;;;;;;;6.13;1.02;;;;;;;10.53;100.00;99704.41;4884769;29;20470;-93
2023/10/22 02:11:16;;;;;;;7.28;1.10;;;;;;;10.51;100.00;99704.63;4884546;29;20400;-92
2023/10/22 02:13:41;;;;;;;4.43;1.10;;;;;;;10.52;100.00;99705.44;4901159;29;20089;-92
2023/10/22 02:16:15;;;;;;;4.10;1.60;;;;;;;10.53;100.00;99709.81;4884083;29;20473;-92
2023/10/22 02:18:40;;;;;;;8.38;1.50;;;;;;;10.49;100.00;99723.03;4894124;29;20381;-92
2023/10/22 02:21:08;;;;;;;6.37;1.40;;;;;;;10.48;100.00;99729.53;4883388;29;20048;-94
2023/10/22 02:23:34;;;;;;;6.20;1.33;;;;;;;10.48;100.00;99740.38;4884423;29;20172;-93
2023/10/22 02:26:10;;;;;;;6.22;1.40;;;;;;;10.48;100.00;99732.25;4884523;29;20025;-93
2023/10/22 02:28:38;;;;;;;7.20;1.30;;;;;;;10.47;100.00;99736.00;4884472;29;20056;-93
2023/10/22 02:31:06;;;;;;;4.60;1.43;;;;;;;10.47;100.00;99735.19;4884704;29;20501;-93
2023/10/22 02:33:32;;;;;;;4.45;1.27;;;;;;;10.46;100.00;99756.06;4884309;29;20029;-94
2023/10/22 02:35:57;;;;;;;4.40;1.23;;;;;;;10.43;100.00;99747.59;4884271;29;20037;-94
2023/10/22 02:38:43;;;;;;;4.90;1.97;;;;;;;10.42;100.00;99757.59;4884102;29;20446;-94
2023/10/22 02:41:14;;;;;;;2.53;1.00;;;;;;;10.40;100.00;99761.63;4884117;29;20490;-94
2023/10/22 02:43:39;;;;;;;4.22;1.33;;;;;;;10.39;100.00;99765.41;4884338;29;20031;-94
2023/10/22 02:46:11;;;;;;;5.10;1.60;;;;;;;10.42;100.00;99775.75;4884534;29;20029;-93
2023/10/22 02:48:39;;;;;;;6.63;1.75;;;;;;;10.38;100.00;99786.28;4883985;29;20478;-94
2023/10/22 02:51:10;;;;;;;7.22;2.00;;;;;;;10.34;100.00;99775.06;4883828;29;20096;-94
2023/10/22 02:53:38;;;;;;;9.10;2.28;;;;;;;10.35;100.00;99786.75;4869211;29;20052;-93
2023/10/22 02:56:09;;;;;;;5.60;1.70;;;;;;;10.35;100.00;99793.00;4868680;29;20087;-93
2023/10/22 02:58:40;;;;;;;12.73;1.93;;;;;;;10.34;100.00;99802.19;4868850;29;20059;-93
2023/10/22 03:02:02;;;;;;;6.75;2.40;;;;;;;10.33;100.00;99811.41;4883831;29;20028;-93
2023/10/22 03:04:30;;;;;;;5.35;1.50;;;;;;;10.31;100.00;99816.19;4884722;29;20043;-93
2023/10/22 03:06:56;;;;;;;4.28;1.70;;;;;;;10.34;100.00;99812.22;4884148;29;20445;-93
2023/10/22 03:09:26;;;;;;;4.80;2.10;;;;;;;10.31;100.00;99816.19;4883318;29;20033;-93
2023/10/22 03:12:48;;;;;;;4.20;1.90;;;;;;;10.31;100.00;99827.03;4853242;29;20047;-93
2023/10/22 03:15:19;;;;;;;5.18;1.65;;;;;;;10.29;100.00;99834.59;4827276;29;20038;-92
2023/10/22 03:24:58;;;;;;;5.15;2.22;;;;;;;10.26;100.00;99851.34;4843092;29;20053;-92
2023/10/22 03:27:30;;;;;;;6.88;2.78;;;;;;;10.19;100.00;99870.44;4827777;29;20078;-92
2023/10/22 03:33:23;;;;;;;5.45;2.85;;;;;;;10.11;100.00;99888.94;4899811;29;20044;-91
2023/10/22 03:39:10;;;;;;;6.00;2.83;;;;;;;10.04;100.00;99885.50;4899439;29;20134;-91
2023/10/22 03:52:03;;;;;;;6.28;3.53;;;;;;;9.85;100.00;99923.56;4841905;29;20045;-93
2023/10/22 03:58:03;;;;;;;8.20;4.15;;;;;;;9.84;100.00;99930.03;4842305;29;20090;-93
2023/10/22 04:04:10;;;;;;;6.83;4.00;;;;;;;9.79;100.00;99941.56;4842051;29;20518;-93
2023/10/22 04:10:31;;;;;;;8.98;3.90;;;;;;;9.87;100.00;99959.38;4842090;29;20551;-93
2023/10/22 04:28:27;;;;;;;10.07;3.63;;;;;;;9.68;100.00;99990.28;4899269;29;20435;-91
2023/10/22 04:35:35;;;;;;;6.03;3.30;;;;;;;9.57;100.00;99995.44;4899302;29;20064;-92
2023/10/22 04:45:14;;;;;;;7.45;3.40;;;;;;;9.34;100.00;100009.69;4898057;29;20033;-93
2023/10/22 04:51:57;;;;;;;7.80;3.85;;;;;;;9.30;100.00;100032.84;4899101;29;20047;-92
2023/10/22 04:58:02;;;;;;;10.13;3.92;;;;;;;9.21;100.00;100042.34;4898811;29;20454;-92
2023/10/22 05:03:55;;;;;;;16.20;4.18;;;;;;;9.16;100.00;100051.13;4898798;29;20055;-93
2023/10/22 05:06:20;;;;;;;10.70;3.83;;;;;;;9.14;100.00;100042.44;4882536;29;20031;-93
2023/10/22 05:08:51;;;;;;;10.87;4.37;;;;;;;9.16;100.00;100048.44;4882047;29;20029;-92
2023/10/22 05:11:47;;;;;;;6.30;3.50;;;;;;;9.13;100.00;100057.81;4868019;29;20083;-92
2023/10/22 05:18:21;;;;;;;;;;;;;;;;;;;;;
2023/10/22 05:24:38;;;;;;;10.82;4.50;;;;;;;9.06;100.00;100084.13;4808629;29;20122;-93
2023/10/22 05:27:09;;;;;;;10.98;3.80;;;;;;;9.04;100.00;100080.00;4778504;29;20088;-93
2023/10/22 05:29:37;;;;;;;9.45;3.53;;;;;;;8.99;100.00;100086.09;4828892;29;20045;-94
2023/10/22 05:32:07;;;;;;;5.47;3.40;;;;;;;8.98;100.00;100094.44;4851537;29;20125;-93
2023/10/22 05:34:36;;;;;;;8.15;3.58;;;;;;;8.93;100.00;100095.06;4866510;29;20029;-95
2023/10/22 05:37:01;;;;;;;9.32;3.55;;;;;;;8.91;100.00;100091.78;4866523;29;20040;-94
2023/10/22 05:39:27;;;;;;;9.60;3.57;;;;;;;8.89;100.00;100096.59;4854214;29;20040;-94
2023/10/22 05:41:54;;;;;;;7.60;3.03;;;;;;;8.85;100.00;100095.38;4866765;29;20033;-94
2023/10/22 05:44:38;;;;;;;7.65;3.42;;;;;;;8.82;100.00;100099.34;4866560;29;20029;-93
2023/10/22 05:47:04;;;;;;;10.45;3.47;;;;;;;8.77;100.00;100115.44;4867151;29;20048;-92
2023/10/22 05:49:32;;;;;;;5.25;3.05;;;;;;;8.73;100.00;100115.03;4900842;29;20039;-95
2023/10/22 05:52:06;;;;;;;8.40;3.30;;;;;;;8.73;100.00;100119.63;4885342;29;20032;-95
2023/10/22 05:54:34;;;;;;;8.32;3.08;;;;;;;8.69;100.00;100111.09;4901361;29;20036;-92
2023/10/22 05:57:08;;;;;;;9.88;3.40;;;;;;;8.67;100.00;100117.81;4865187;29;20041;-92
2023/10/22 06:00:05;;;;;;;;;;;;;;;;;;;;;
2023/10/22 06:02:31;;;;;;;7.72;2.80;;;;;;;8.65;100.00;100138.81;4868363;29;20045;-91
2023/10/22 06:08:27;;;;;;;11.48;2.63;;;;;;;8.62;100.00;100148.19;4882761;29;20044;-91
2023/10/22 06:14:19;;;;;;;7.95;2.38;;;;;;;8.64;100.00;100158.81;4882132;29;20049;-91
2023/10/22 06:16:46;;;;;;;6.57;2.40;;;;;;;8.70;100.00;100166.88;4865810;29;20048;-91
2023/10/22 06:19:15;;;;;;;8.83;2.63;;;;;;;8.76;100.00;100165.16;4865843;29;20032;-91
2023/10/22 06:22:37;;;;;;;6.35;2.78;;;;;;;8.83;100.00;100167.78;4862613;29;20037;-91
2023/10/22 06:28:27;;;;;;;4.82;2.15;;;;;;;8.95;100.00;100187.69;4878827;29;20088;-90
2023/10/22 06:44:22;;;;;;;4.65;1.50;;;;;;;9.35;100.00;100217.09;4879627;29;20040;-91
2023/10/22 06:46:48;;;;;;;4.05;1.50;;;;;;;9.41;100.00;100216.22;4864394;29;20084;-91
2023/10/22 06:52:36;;;;;;;8.63;1.90;;;;;;;9.55;100.00;100232.31;4888703;29;20036;-92
2023/10/22 06:58:46;;;;;;;3.55;1.40;;;;;;;9.71;100.00;100244.47;4901660;29;20557;-91
2023/10/22 07:01:19;;;;;;;3.78;1.13;;;;;;;9.76;100.00;100250.06;4883871;29;20131;-92
2023/10/22 07:04:09;;;;;;;9.40;1.65;;;;;;;9.80;100.00;100245.81;4876488;29;20055;-92
2023/10/22 07:06:37;;;;;;;2.72;1.30;;;;;;;9.83;100.00;100250.78;4885667;29;20025;-92
2023/10/22 07:09:30;;;;;;;2.97;1.07;;;;;;;9.83;100.00;100259.75;4868227;29;20049;-93
2023/10/22 07:12:03;;;;;;;8.18;1.45;;;;;;;9.84;100.00;100263.28;4871097;29;20485;-93
2023/10/22 07:14:56;;;;;;;4.65;1.58;;;;;;;9.87;100.00;100265.53;4807760;29;20051;-93
2023/10/22 07:17:32;;;;;;;;;;;;;;;;;;;;;
2023/10/22 07:23:21;;;;;;;7.05;1.40;;;;;;;9.77;100.00;100290.47;4881981;29;20044;-94
2023/10/22 07:26:20;;;;;;;5.60;1.10;;;;;;;9.72;100.00;100298.41;4880512;29;20120;-94
2023/10/22 07:28:46;;;;;;;4.20;1.33;;;;;;;9.71;100.00;100295.94;4848901;29;20100;-94
2023/10/22 07:31:18;;;;;;;3.72;1.45;;;;;;;9.73;100.00;100304.66;4864997;29;20044;-94
2023/10/22 07:33:58;;;;;;;2.70;1.20;;;;;;;9.71;100.00;100314.91;4878202;29;20382;-94
2023/10/22 07:36:23;;;;;;;5.32;1.30;;;;;;;9.71;100.00;100309.47;4865313;29;20052;-93
2023/10/22 07:38:58;;;;;;;7.17;1.60;;;;;;;9.72;100.00;100317.38;4880241;29;20039;-93
2023/10/22 07:41:29;;;;;;;4.40;1.23;;;;;;;9.74;100.00;100328.81;4865137;29;20293;-91
2023/10/22 07:44:10;;;;;;;7.18;1.52;;;;;;;9.75;100.00;100327.78;4864491;29;20033;-94
2023/10/22 07:46:46;;;;;;;11.05;1.60;;;;;;;9.79;100.00;100325.47;4861838;29;20040;-93
2023/10/22 07:49:11;;;;;;;6.57;1.30;;;;;;;9.85;100.00;100327.28;4889492;29;20477;-93
2023/10/22 07:51:46;;;;;;;3.83;1.20;;;;;;;9.97;100.00;100336.31;4888657;29;20084;-93
2023/10/22 07:54:14;;;;;;;5.03;1.58;;;;;;;10.08;100.00;100348.28;4885519;29;20466;-92
2023/10/22 07:56:45;;;;;;;3.83;1.20;;;;;;;10.21;100.00;100343.78;4875517;29;20465;-93
2023/10/22 07:59:13;;;;;;;2.10;1.30;;;;;;;10.32;100.00;100337.63;4852274;29;20071;-92
2023/10/22 08:01:38;;;;;;;9.05;1.58;;;;;;;10.45;100.00;100342.94;4864007;29;20074;-92
2023/10/22 08:04:06;;;;;;;6.60;1.60;;;;;;;10.59;100.00;100346.28;4877753;29;20381;-92
2023/10/22 08:06:55;;;;;;;5.40;1.50;;;;;;;10.73;100.00;100344.22;4882289;29;20400;-92
2023/10/22 08:09:22;;;;;;;2.80;1.20;;;;;;;10.85;100.00;100350.56;4885040;29;20404;-91
2023/10/22 08:11:52;;;;;;;3.60;1.10;;;;;;;11.01;100.00;100350.97;4899038;29;20537;-92
2023/10/22 08:14:18;;;;;;;3.55;1.30;;;;;;;11.12;100.00;100349.38;4882372;29;20375;-93
2023/10/22 08:16:46;;;;;;;11.20;1.70;;;;;;;11.20;100.00;100347.13;4867137;29;20065;-94
2023/10/22 08:19:14;;;;;;;6.10;1.33;;;;;;;11.33;100.00;100358.88;4882629;29;20044;-93
2023/10/22 08:21:47;;;;;;;4.03;1.20;;;;;;;11.43;100.00;100350.13;4881768;29;20131;-92
2023/10/22 08:24:20;;;;;;;5.47;1.10;;;;;;;11.57;100.00;100354.28;4882153;29;20462;-92
2023/10/22 08:26:46;;;;;;;3.05;1.30;;;;;;;11.72;100.00;100357.41;4867489;29;20047;-92
2023/10/22 08:29:14;;;;;;;15.05;1.50;;;;;;;11.82;100.00;100361.41;4882038;29;20149;-91
2023/10/22 08:31:45;;;;;;;4.10;1.47;;;;;;;11.92;100.00;100378.78;4866803;29;20068;-92
2023/10/22 08:34:10;;;;;;;7.53;1.85;;;;;;;11.97;100.00;100369.94;4882424;29;20052;-92
2023/10/22 08:36:36;;;;;;;6.25;1.20;;;;;;;12.02;100.00;100371.97;4881987;29;20434;-93
2023/10/22 08:39:05;;;;;;;2.83;1.20;;;;;;;12.11;100.00;100386.88;4883376;29;20055;-94
2023/10/22 08:42:16;;;;;;;4.57;1.33;;;;;;;12.20;100.00;100392.78;4866713;29;20041;-94
2023/10/22 08:45:02;;;;;;;3.75;1.40;;;;;;;12.26;100.00;100387.19;4872898;29;20036;-94
2023/10/22 08:47:31;;;;;;;5.33;1.50;;;;;;;12.39;100.00;100388.03;4869717;29;20079;-94
2023/10/22 08:50:02;;;;;;;5.80;1.33;;;;;;;12.45;100.00;100398.78;4885650;29;20172;-94
2023/10/22 08:52:37;;;;;;;5.25;1.48;;;;;;;12.47;100.00;100403.97;4867423;29;20056;-93
2023/10/22 08:55:36;;;;;;;3.47;1.40;;;;;;;12.45;100.00;100396.06;4863490;29;20041;-93
2023/10/22 08:58:19;;;;;;;5.13;2.20;;;;;;;12.50;100.00;100403.50;4881942;29;20076;-93
2023/10/22 09:00:50;;;;;;;2.57;1.30;;;;;;;12.58;100.00;100403.13;4867171;29;20051;-95
2023/10/22 09:03:31;;;;;;;;;;;;;;;;;;;;;
2023/10/22 09:05:58;;;;;;;4.15;1.95;;;;;;;12.71;100.00;100412.09;4892957;29;20040;-92
2023/10/22 09:08:41;;;;;;;6.15;2.03;;;;;;;12.80;100.00;100421.56;4870437;29;20147;-93
2023/10/22 09:11:16;;;;;;;6.10;1.92;;;;;;;12.78;100.00;100418.25;4886152;29;20040;-95
2023/10/22 09:20:40;;;;;;;4.22;2.38;;;;;;;12.87;100.00;100422.22;4826575;29;20075;-94
2023/10/22 09:23:17;;;;;;;4.30;2.05;;;;;;;12.92;100.00;100432.44;4826869;29;20145;-95
2023/10/22 09:25:47;;;;;;;4.32;2.05;;;;;;;12.94;100.00;100424.84;4811220;29;20075;-94
2023/10/22 09:28:55;;;;;;;3.83;2.00;;;;;;;12.93;100.00;100434.91;4826355;29;20050;-95
2023/10/22 09:31:24;;;;;;;4.63;2.47;;;;;;;12.89;100.00;100427.44;4844368;29;20050;-94
2023/10/22 09:34:02;;;;;;;3.67;2.30;;;;;;;12.88;100.00;100434.78;4844834;29;20499;-94
2023/10/22 09:36:56;;;;;;;8.80;2.50;;;;;;;12.93;100.00;100443.06;4844628;29;20029;-94
2023/10/22 09:39:33;;;;;;;3.78;1.90;;;;;;;13.03;100.00;100447.06;4828887;29;20476;-94
2023/10/22 09:42:06;;;;;;;4.97;2.20;;;;;;;13.11;100.00;100454.84;4814051;29;20050;-94
2023/10/22 09:44:40;;;;;;;7.15;2.10;;;;;;;13.21;100.00;100451.50;4844707;29;20045;-94
2023/10/22 09:47:12;;;;;;;5.88;2.20;;;;;;;13.29;100.00;100457.38;4866035;29;20045;-94
2023/10/22 09:49:54;;;;;;;4.57;2.72;;;;;;;13.32;100.00;100467.81;4865998;29;20068;-94
2023/10/22 09:52:32;;;;;;;6.05;1.95;;;;;;;13.29;100.00;100475.66;4866773;29;20074;-94
2023/10/22 09:55:04;;;;;;;4.43;2.20;;;;;;;13.23;100.00;100490.22;4866181;29;20033;-94
2023/10/22 09:57:33;;;;;;;6.57;2.35;;;;;;;13.13;100.00;100483.50;4865447;29;20039;-94
2023/10/22 10:00:10;;;;;;;7.05;2.55;;;;;;;13.20;100.00;100486.09;4861257;29;20053;-94
2023/10/22 10:02:45;;;;;;;5.45;2.50;;;;;;;13.25;100.00;100488.91;4847032;29;20033;-94
2023/10/22 10:05:12;;;;;;;4.57;2.40;;;;;;;13.24;100.00;100475.53;4863278;29;20126;-93
2023/10/22 10:07:43;;;;;;;4.43;2.40;;;;;;;13.36;100.00;100479.09;4878995;29;20041;-93
2023/10/22 10:10:12;;;;;;;3.58;2.13;;;;;;;13.50;100.00;100483.16;4884675;29;20036;-93
2023/10/22 10:12:42;;;;;;;6.50;2.40;;;;;;;13.57;100.00;100476.72;4901192;29;20029;-94
2023/10/22 10:15:31;;;;;;;4.10;2.10;;;;;;;13.66;100.00;100478.00;4884637;29;20081;-94
2023/10/22 10:17:57;;;;;;;4.13;2.45;;;;;;;13.58;100.00;100479.22;4884735;29;20044;-94
2023/10/22 10:20:35;;;;;;;4.23;2.20;;;;;;;13.48;100.00;100504.38;4900384;29;20032;-94
2023/10/22 10:23:10;;;;;;;4.20;2.08;;;;;;;13.41;100.00;100500.16;4884771;29;20055;-91
2023/10/22 10:25:38;;;;;;;3.13;2.20;;;;;;;13.46;100.00;100494.78;4884474;29;20032;-92
2023/10/22 10:28:14;;;;;;;3.28;2.00;;;;;;;13.45;100.00;100493.13;4884098;29;20143;-91
2023/10/22 10:30:46;;;;;;;7.65;2.60;;;;;;;13.44;100.00;100503.22;4900193;29;20111;-93
2023/10/22 10:33:14;;;;;;;5.73;3.00;;;;;;;13.44;100.00;100514.09;4883732;29;20033;-92
2023/10/22 10:35:46;;;;;;;5.57;2.13;;;;;;;13.44;100.00;100513.28;4883504;29;20041;-92
2023/10/22 10:38:14;;;;;;;5.78;2.40;;;;;;;13.51;100.00;100520.25;4900300;29;20064;-91
2023/10/22 10:40:42;;;;;;;4.90;2.20;;;;;;;13.61;100.00;100510.59;4883452;29;20109;-92
2023/10/22 10:43:13;;;;;;;5.68;2.25;;;;;;;13.67;100.00;100513.19;4900516;29;20035;-92
2023/10/22 10:45:49;;;;;;;5.30;2.03;;;;;;;13.66;100.00;100511.53;4883882;29;20036;-92
2023/10/22 10:48:48;;;;;;;3.22;1.90;;;;;;;13.69;100.00;100516.50;4883686;29;20076;-92
2023/10/22 10:51:24;;;;;;;5.53;2.13;;;;;;;13.67;100.00;100512.34;4884041;29;20381;-93
2023/10/22 10:54:12;;;;;;;3.28;2.22;;;;;;;13.83;100.00;100516.19;4883749;29;20032;-92
2023/10/22 10:57:09;;;;;;;5.32;2.40;;;;;;;13.79;100.00;100525.91;4883013;29;20047;-92
2023/10/22 10:59:35;;;;;;;6.33;2.37;;;;;;;13.84;100.00;100515.94;4872106;29;20048;-92
2023/10/22 11:02:03;;;;;;;5.72;2.60;;;;;;;13.90;100.00;100527.78;4864829;29;20041;-92
2023/10/22 11:04:30;;;;;;;6.95;2.20;;;;;;;14.08;100.00;100523.16;4872976;29;20021;-92
2023/10/22 11:06:58;;;;;;;6.80;2.53;;;;;;;14.30;100.00;100520.53;4916864;29;20043;-92
2023/10/22 11:09:24;;;;;;;3.50;2.20;;;;;;;14.61;100.00;100515.56;4903239;29;20051;-92
2023/10/22 11:12:04;;;;;;;5.33;2.30;;;;;;;14.65;100.00;100522.22;4918882;29;20091;-91
2023/10/22 11:14:35;;;;;;;5.45;2.47;;;;;;;14.82;100.00;100516.69;4902119;29;20036;-92
2023/10/22 11:17:05;;;;;;;2.47;2.22;;;;;;;14.85;100.00;100517.03;4902137;29;20032;-92
2023/10/22 11:19:42;;;;;;;7.03;2.70;;;;;;;14.66;100.00;100527.41;4903103;29;20039;-92
2023/10/22 11:22:12;;;;;;;4.82;2.40;;;;;;;14.46;100.00;100529.81;4902107;29;20028;-91
2023/10/22 11:24:48;;;;;;;5.77;1.93;;;;;;;14.39;100.00;100529.94;4902941;29;20454;-91
2023/10/22 11:28:05;;;;;;;3.38;2.50;;;;;;;14.48;100.00;100533.94;4886379;29;20042;-92
2023/10/22 11:30:37;;;;;;;5.25;2.65;;;;;;;14.29;100.00;100540.69;4884529;29;20040;-96
2023/10/22 11:33:09;;;;;;;4.57;2.33;;;;;;;14.11;100.00;100548.03;4884066;29;20040;-95
2023/10/22 11:38:35;;;;;;;5.67;2.77;;;;;;;13.79;100.00;100555.91;4901320;29;20040;-95
2023/10/22 11:44:46;;;;;;;6.45;3.00;;;;;;;12.93;100.00;100565.59;4900315;29;20039;-96
2023/10/22 11:47:37;;;;;;;4.10;3.22;;;;;;;12.46;100.00;100569.13;4885526;29;20035;-96
2023/10/22 11:50:14;;;;;;;5.97;3.35;;;;;;;12.16;100.00;100562.94;4869271;29;20184;-96
2023/10/22 11:52:54;;;;;;;6.33;4.00;;;;;;;11.93;100.00;100578.94;4870407;29;20060;-96
2023/10/22 11:55:21;;;;;;;5.30;4.00;;;;;;;11.72;100.00;100582.13;4883426;29;20040;-95
2023/10/22 11:57:52;;;;;;;6.90;4.10;;;;;;;11.58;100.00;100586.91;4884749;29;20088;-94
2023/10/22 12:00:20;;;;;;;8.15;4.90;;;;;;;11.84;100.00;100582.16;4884637;29;20036;-95
2023/10/22 12:02:48;;;;;;;9.15;5.38;;;;;;;12.44;100.00;100584.84;4867787;29;20033;-95
2023/10/22 12:05:20;;;;;;;10.40;5.53;;;;;;;12.53;100.00;100587.25;4868660;29;20041;-95
2023/10/22 12:08:18;;;;;;;9.32;5.47;;;;;;;12.41;100.00;100593.47;4884265;29;20040;-95
2023/10/22 12:10:48;;;;;;;7.43;5.28;;;;;;;12.16;100.00;100593.66;4883224;29;20462;-95
2023/10/22 12:13:17;;;;;;;8.07;5.60;;;;;;;12.06;100.00;100596.13;4883012;29;20059;-95
2023/10/22 12:15:46;;;;;;;9.43;6.50;;;;;;;11.99;100.00;100595.38;4882943;29;20032;-95
2023/10/22 12:18:14;;;;;;;12.37;6.93;;;;;;;12.26;100.00;100598.56;4883233;29;20040;-95
2023/10/22 12:27:04;;;;;;;9.00;6.97;;;;;;;13.02;100.00;100603.34;4899597;29;20393;-95
2023/10/22 12:45:15;;;;;;;5.43;3.92;;;;;;;14.44;100.00;100619.28;4918462;29;20202;-95
2023/10/22 12:52:05;;;;;;;8.53;3.80;;;;;;;15.66;100.00;100622.19;4918094;29;20059;-94
2023/10/22 12:54:52;;;;;;;3.88;2.50;;;;;;;18.28;100.00;100620.50;4900347;29;20032;-92
2023/10/22 12:57:17;;;;;;;4.15;2.00;;;;;;;18.24;99.08;100622.94;4870090;29;20029;-92
2023/10/22 12:59:44;;;;;;;3.70;1.60;;;;;;;17.93;98.69;100622.06;4882408;29;20047;-91
2023/10/22 13:02:10;;;;;;;2.80;1.73;;;;;;;19.16;95.61;100621.28;4881499;29;20052;-90
2023/10/22 13:04:38;;;;;;;4.53;1.70;;;;;;;20.57;82.28;100614.81;4881158;29;20485;-91
2023/10/22 13:07:06;;;;;;;2.57;1.40;;;;;;;20.77;80.60;100611.91;4899108;29;20051;-92
2023/10/22 13:09:43;;;;;;;1.67;1.30;;;;;;;20.05;79.75;100628.13;4882777;29;20039;-95
2023/10/22 13:12:08;;;;;;;1.90;1.50;;;;;;;18.97;84.93;100631.22;4867612;29;20059;-94
2023/10/22 13:14:44;;;;;;;;;;;;;;;;;;;;;
2023/10/22 13:17:13;;;;;;;1.65;1.20;;;;;;;20.56;82.78;100621.44;4901134;29;20039;-94
2023/10/22 13:19:40;;;;;;;2.15;1.10;;;;;;;23.27;74.70;100627.25;4875005;29;20470;-93
2023/10/22 13:22:06;;;;;;;2.15;1.00;;;;;;;24.57;64.61;100628.84;4882003;29;20100;-90
2023/10/22 13:24:40;;;;;;;2.90;1.03;;;;;;;25.99;60.20;100629.19;4882192;29;20121;-93
2023/10/22 13:27:06;;;;;;;2.35;0.85;;;;;;;27.47;54.77;100628.16;4883628;29;20470;-94
2023/10/22 13:29:34;;;;;;;1.13;1.00;;;;;;;26.78;55.31;100627.22;4882609;29;20092;-94
2023/10/22 13:32:26;;;;;;;1.30;0.90;;;;;;;26.26;59.55;100625.28;4881801;29;20056;-95
2023/10/22 13:34:54;;;;;;;1.48;1.00;;;;;;;24.81;56.72;100630.50;4886392;29;20031;-95
2023/10/22 13:37:20;;;;;;;1.60;1.10;;;;;;;26.01;55.67;100627.72;4885424;29;20039;-94
2023/10/22 13:39:46;;;;;;;3.60;1.17;;;;;;;28.10;50.74;100633.03;4885192;29;20033;-91
2023/10/22 13:42:12;;;;;;;2.85;1.38;;;;;;;28.45;47.95;100633.56;4885287;29;20404;-91
2023/10/22 13:44:40;;;;;;;3.17;1.30;;;;;;;28.07;47.89;100633.72;4885119;29;20028;-93
2023/10/22 13:47:08;;;;;;;2.20;1.17;;;;;;;28.64;47.45;100630.28;4885185;29;20123;-93
2023/10/22 13:49:37;;;;;;;1.77;1.30;;;;;;;29.96;44.32;100632.28;4885251;29;20040;-93
2023/10/22 13:52:12;;;;;;;1.55;1.10;;;;;;;30.67;39.93;100631.97;4884572;29;20363;-93
2023/10/22 13:54:40;;;;;;;2.45;1.38;;;;;;;28.93;42.46;100628.50;4855633;29;20040;-94
2023/10/22 13:57:08;;;;;;;2.80;1.40;;;;;;;29.31;42.19;100627.41;4885005;29;20048;-93
2023/10/22 13:59:34;;;;;;;1.48;1.38;;;;;;;30.13;39.50;100628.38;4885021;29;20036;-93
2023/10/22 14:02:00;;;;;;;2.33;1.40;;;;;;;29.40;39.84;100627.31;4884702;29;20036;-93
2023/10/22 14:04:28;;;;;;;1.73;1.33;;;;;;;29.42;40.17;100627.75;4888634;29;20411;-95
2023/10/22 14:06:57;;;;;;;1.65;1.40;;;;;;;27.96;42.21;100634.09;4884716;29;20070;-95
2023/10/22 14:09:40;;;;;;;3.28;1.30;;;;;;;26.48;44.08;100640.97;4869628;29;20040;-95
2023/10/22 14:12:06;;;;;;;3.85;1.40;;;;;;;24.79;47.45;100630.03;4889622;29;20115;-95
2023/10/22 14:14:34;;;;;;;3.03;1.20;;;;;;;23.56;49.79;100625.28;4884464;29;20024;-94
2023/10/22 14:17:02;;;;;;;2.28;1.13;;;;;;;22.28;51.93;100636.63;4886123;29;20470;-95
2023/10/22 14:19:28;;;;;;;1.98;1.10;;;;;;;21.68;55.34;100633.28;4896972;29;20488;-94
2023/10/22 14:21:55;;;;;;;2.50;1.30;;;;;;;22.51;53.67;100645.97;4884977;29;20025;-94
2023/10/22 14:24:24;;;;;;;2.17;1.00;;;;;;;22.94;53.04;100637.50;4882234;29;20411;-94
2023/10/22 14:26:55;;;;;;;1.92;1.10;;;;;;;24.06;51.73;100633.66;4875473;29;20029;-95
2023/10/22 14:29:21;;;;;;;1.70;1.08;;;;;;;25.26;47.04;100633.19;4884747;29;20051;-94
2023/10/22 14:31:54;;;;;;;3.78;1.27;;;;;;;26.04;46.27;100635.44;4884197;29;20036;-93
2023/10/22 14:34:22;;;;;;;2.40;1.10;;;;;;;25.88;44.18;100631.44;4884838;29;20474;-94
2023/10/22 14:36:53;;;;;;;1.90;1.17;;;;;;;24.40;47.48;100640.63;4884250;29;20103;-94
2023/10/22 14:39:23;;;;;;;2.53;1.10;;;;;;;23.97;48.57;100643.84;4871552;29;20091;-95
2023/10/22 14:41:54;;;;;;;1.70;1.15;;;;;;;24.61;49.06;100637.38;4892578;29;20123;-94
2023/10/22 14:44:21;;;;;;;2.33;1.13;;;;;;;26.53;44.19;100637.19;4872418;29;20024;-95
2023/10/22 14:47:01;;;;;;;2.03;1.10;;;;;;;28.10;43.61;100642.22;4885380;29;20044;-95
2023/10/22 14:49:30;;;;;;;1.75;1.08;;;;;;;29.20;38.85;100646.59;4883711;29;20044;-95
2023/10/22 14:52:01;;;;;;;1.98;1.00;;;;;;;30.02;37.99;100639.25;4884319;29;20434;-96
2023/10/22 14:54:37;;;;;;;2.13;1.20;;;;;;;30.92;38.91;100644.63;4869100;29;20036;-96
2023/10/22 14:57:03;;;;;;;1.30;1.20;;;;;;;31.13;34.05;100652.00;4884566;29;20025;-93
2023/10/22 14:59:33;;;;;;;2.50;1.30;;;;;;;30.17;34.88;100654.50;4885037;29;20497;-94
2023/10/22 15:02:01;;;;;;;1.80;1.20;;;;;;;29.38;35.70;100665.94;4872387;29;20046;-92
2023/10/22 15:04:51;;;;;;;2.08;1.20;;;;;;;29.14;37.43;100663.91;4869868;29;20127;-92
2023/10/22 15:07:27;;;;;;;;;;;;;;;;;;;;;
2023/10/22 15:10:02;;;;;;;2.20;1.30;;;;;;;25.21;43.18;100661.91;4904747;29;20091;-94
2023/10/22 15:12:33;;;;;;;2.08;1.23;;;;;;;23.58;45.82;100670.94;4889820;29;20033;-95
2023/10/22 15:15:01;;;;;;;1.90;1.20;;;;;;;22.80;48.29;100672.63;4868423;29;20096;-92
2023/10/22 15:17:32;;;;;;;1.92;1.20;;;;;;;22.74;48.39;100667.16;4884185;29;20123;-94
2023/10/22 15:19:57;;;;;;;3.13;1.30;;;;;;;22.60;49.44;100667.13;4884089;29;20461;-95
2023/10/22 15:22:30;;;;;;;2.97;1.20;;;;;;;22.72;50.22;100672.19;4884552;29;20072;-94
2023/10/22 15:24:58;;;;;;;2.75;1.10;;;;;;;22.12;50.92;100672.78;4872883;29;20149;-93
2023/10/22 15:27:27;;;;;;;1.87;0.80;;;;;;;21.60;52.61;100672.59;4883975;29;20110;-93
2023/10/22 15:29:52;;;;;;;2.88;1.10;;;;;;;20.61;55.51;100682.00;4883993;29;20128;-93